sensor_id;sensor_type;location;lat;lon;timestamp;P1;durP1;ratioP1;P2;durP2;ratioP2
62202;SDS011;48199;49.138;7.414;2022-08-01T00:01:38;4.97;;;3.10;;
62202;SDS011;48199;49.138;7.414;2022-08-01T00:04:03;8.68;;;3.28;;
62202;SDS011;48199;49.138;7.414;2022-08-01T00:06:29;6.68;;;3.58;;
62202;SDS011;48199;49.138;7.414;2022-08-01T00:08:55;5.70;;;3.22;;
62202;SDS011;48199;49.138;7.414;2022-08-01T00:11:20;4.78;;;2.80;;
62202;SDS011;48199;49.138;7.414;2022-08-01T00:13:46;5.70;;;3.40;;
62202;SDS011;48199;49.138;7.414;2022-08-01T00:16:11;4.63;;;2.78;;
62202;SDS011;48199;49.138;7.414;2022-08-01T00:18:37;5.90;;;3.13;;
62202;SDS011;48199;49.138;7.414;2022-08-01T00:21:03;4.43;;;2.95;;
62202;SDS011;48199;49.138;7.414;2022-08-01T00:23:29;7.53;;;2.97;;
62202;SDS011;48199;49.138;7.414;2022-08-01T00:25:55;7.07;;;3.30;;
62202;SDS011;48199;49.138;7.414;2022-08-01T00:28:20;4.65;;;2.90;;
62202;SDS011;48199;49.138;7.414;2022-08-01T00:30:45;6.15;;;2.83;;
62202;SDS011;48199;49.138;7.414;2022-08-01T00:33:11;5.40;;;3.20;;
62202;SDS011;48199;49.138;7.414;2022-08-01T00:35:36;11.50;;;3.20;;
62202;SDS011;48199;49.138;7.414;2022-08-01T00:38:02;4.10;;;2.92;;
62202;SDS011;48199;49.138;7.414;2022-08-01T00:40:27;7.15;;;3.20;;
62202;SDS011;48199;49.138;7.414;2022-08-01T00:42:53;5.55;;;3.35;;
62202;SDS011;48199;49.138;7.414;2022-08-01T00:45:18;4.43;;;2.88;;
62202;SDS011;48199;49.138;7.414;2022-08-01T00:47:43;3.70;;;2.53;;
62202;SDS011;48199;49.138;7.414;2022-08-01T00:50:09;7.38;;;3.40;;
62202;SDS011;48199;49.138;7.414;2022-08-01T00:52:35;5.00;;;2.75;;
62202;SDS011;48199;49.138;7.414;2022-08-01T00:55:02;4.97;;;2.88;;
62202;SDS011;48199;49.138;7.414;2022-08-01T00:57:28;5.70;;;3.22;;
62202;SDS011;48199;49.138;7.414;2022-08-01T00:59:54;5.72;;;3.13;;
62202;SDS011;48199;49.138;7.414;2022-08-01T01:02:19;6.03;;;3.42;;
62202;SDS011;48199;49.138;7.414;2022-08-01T01:04:45;5.10;;;3.10;;
62202;SDS011;48199;49.138;7.414;2022-08-01T01:07:17;8.07;;;3.30;;
62202;SDS011;48199;49.138;7.414;2022-08-01T01:09:54;4.57;;;2.90;;
62202;SDS011;48199;49.138;7.414;2022-08-01T01:18:16;4.13;;;2.88;;
62202;SDS011;48199;49.138;7.414;2022-08-01T01:20:26;5.85;;;3.25;;
62202;SDS011;48199;49.138;7.414;2022-08-01T01:23:14;6.95;;;3.63;;
62202;SDS011;48199;49.138;7.414;2022-08-01T01:28:33;5.15;;;3.00;;
62202;SDS011;48199;49.138;7.414;2022-08-01T01:31:15;4.65;;;3.15;;
62202;SDS011;48199;49.138;7.414;2022-08-01T01:33:46;5.40;;;2.88;;
62202;SDS011;48199;49.138;7.414;2022-08-01T01:36:13;5.80;;;3.63;;
62202;SDS011;48199;49.138;7.414;2022-08-01T01:38:42;5.30;;;3.20;;
62202;SDS011;48199;49.138;7.414;2022-08-01T01:41:13;9.55;;;3.58;;
62202;SDS011;48199;49.138;7.414;2022-08-01T01:43:40;5.20;;;3.13;;
62202;SDS011;48199;49.138;7.414;2022-08-01T01:46:07;5.60;;;3.10;;
62202;SDS011;48199;49.138;7.414;2022-08-01T01:48:35;6.30;;;3.10;;
62202;SDS011;48199;49.138;7.414;2022-08-01T01:51:02;6.22;;;2.95;;
62202;SDS011;48199;49.138;7.414;2022-08-01T01:53:28;4.63;;;3.05;;
62202;SDS011;48199;49.138;7.414;2022-08-01T01:55:58;9.07;;;3.10;;
62202;SDS011;48199;49.138;7.414;2022-08-01T01:58:25;7.50;;;3.33;;
62202;SDS011;48199;49.138;7.414;2022-08-01T02:00:52;5.38;;;3.17;;
62202;SDS011;48199;49.138;7.414;2022-08-01T02:03:21;5.70;;;3.25;;
62202;SDS011;48199;49.138;7.414;2022-08-01T02:05:49;6.13;;;3.22;;
62202;SDS011;48199;49.138;7.414;2022-08-01T02:08:17;5.03;;;3.17;;
62202;SDS011;48199;49.138;7.414;2022-08-01T02:10:43;5.50;;;3.00;;
62202;SDS011;48199;49.138;7.414;2022-08-01T02:13:29;7.40;;;3.40;;
62202;SDS011;48199;49.138;7.414;2022-08-01T02:15:58;4.97;;;2.83;;
62202;SDS011;48199;49.138;7.414;2022-08-01T02:18:23;5.65;;;3.40;;
62202;SDS011;48199;49.138;7.414;2022-08-01T02:20:49;5.97;;;3.00;;
62202;SDS011;48199;49.138;7.414;2022-08-01T02:23:17;4.68;;;3.10;;
62202;SDS011;48199;49.138;7.414;2022-08-01T02:25:44;6.47;;;3.40;;
62202;SDS011;48199;49.138;7.414;2022-08-01T02:30:53;5.18;;;3.00;;
62202;SDS011;48199;49.138;7.414;2022-08-01T02:33:23;6.07;;;3.17;;
62202;SDS011;48199;49.138;7.414;2022-08-01T02:35:52;5.30;;;2.97;;
62202;SDS011;48199;49.138;7.414;2022-08-01T02:38:22;3.92;;;3.05;;
62202;SDS011;48199;49.138;7.414;2022-08-01T02:40:52;5.90;;;3.35;;
62202;SDS011;48199;49.138;7.414;2022-08-01T02:43:20;6.85;;;3.10;;
62202;SDS011;48199;49.138;7.414;2022-08-01T02:45:51;4.38;;;2.95;;
62202;SDS011;48199;49.138;7.414;2022-08-01T02:48:19;7.38;;;3.55;;
62202;SDS011;48199;49.138;7.414;2022-08-01T02:50:47;5.00;;;3.03;;
62202;SDS011;48199;49.138;7.414;2022-08-01T02:53:14;4.60;;;3.30;;
62202;SDS011;48199;49.138;7.414;2022-08-01T02:55:42;8.25;;;2.90;;
62202;SDS011;48199;49.138;7.414;2022-08-01T02:58:12;5.65;;;3.10;;
62202;SDS011;48199;49.138;7.414;2022-08-01T03:00:41;6.03;;;3.58;;
62202;SDS011;48199;49.138;7.414;2022-08-01T03:03:08;7.30;;;3.28;;
62202;SDS011;48199;49.138;7.414;2022-08-01T03:05:35;5.45;;;3.08;;
62202;SDS011;48199;49.138;7.414;2022-08-01T03:08:01;9.85;;;3.28;;
62202;SDS011;48199;49.138;7.414;2022-08-01T03:10:28;7.55;;;3.28;;
62202;SDS011;48199;49.138;7.414;2022-08-01T03:12:54;5.10;;;3.33;;
62202;SDS011;48199;49.138;7.414;2022-08-01T03:15:23;6.63;;;3.30;;
62202;SDS011;48199;49.138;7.414;2022-08-01T03:17:51;4.38;;;3.10;;
62202;SDS011;48199;49.138;7.414;2022-08-01T03:20:20;6.38;;;3.10;;
62202;SDS011;48199;49.138;7.414;2022-08-01T03:22:49;7.40;;;3.55;;
62202;SDS011;48199;49.138;7.414;2022-08-01T03:25:17;12.93;;;3.40;;
62202;SDS011;48199;49.138;7.414;2022-08-01T03:27:45;11.82;;;3.38;;
62202;SDS011;48199;49.138;7.414;2022-08-01T03:30:16;8.25;;;3.55;;
62202;SDS011;48199;49.138;7.414;2022-08-01T03:32:42;8.30;;;3.97;;
62202;SDS011;48199;49.138;7.414;2022-08-01T03:35:07;6.88;;;3.47;;
62202;SDS011;48199;49.138;7.414;2022-08-01T03:37:37;10.63;;;3.70;;
62202;SDS011;48199;49.138;7.414;2022-08-01T03:40:11;5.85;;;3.47;;
62202;SDS011;48199;49.138;7.414;2022-08-01T03:42:44;5.53;;;3.35;;
62202;SDS011;48199;49.138;7.414;2022-08-01T03:45:15;6.65;;;3.35;;
62202;SDS011;48199;49.138;7.414;2022-08-01T03:47:46;7.05;;;4.00;;
62202;SDS011;48199;49.138;7.414;2022-08-01T03:50:13;4.03;;;3.15;;
62202;SDS011;48199;49.138;7.414;2022-08-01T03:52:41;7.30;;;3.67;;
62202;SDS011;48199;49.138;7.414;2022-08-01T03:55:10;4.93;;;3.30;;
62202;SDS011;48199;49.138;7.414;2022-08-01T03:57:36;14.10;;;4.53;;
62202;SDS011;48199;49.138;7.414;2022-08-01T04:00:04;6.47;;;3.40;;
62202;SDS011;48199;49.138;7.414;2022-08-01T04:02:34;4.95;;;3.10;;
62202;SDS011;48199;49.138;7.414;2022-08-01T04:04:59;6.38;;;3.20;;
62202;SDS011;48199;49.138;7.414;2022-08-01T04:07:27;5.25;;;3.40;;
62202;SDS011;48199;49.138;7.414;2022-08-01T04:09:56;6.78;;;3.83;;
62202;SDS011;48199;49.138;7.414;2022-08-01T04:12:22;6.63;;;3.40;;
62202;SDS011;48199;49.138;7.414;2022-08-01T04:14:48;4.13;;;3.10;;
62202;SDS011;48199;49.138;7.414;2022-08-01T04:17:14;9.25;;;3.80;;
62202;SDS011;48199;49.138;7.414;2022-08-01T04:19:40;6.35;;;3.63;;
62202;SDS011;48199;49.138;7.414;2022-08-01T04:22:06;5.32;;;3.33;;
62202;SDS011;48199;49.138;7.414;2022-08-01T04:24:33;6.68;;;3.53;;
62202;SDS011;48199;49.138;7.414;2022-08-01T04:27:01;5.78;;;3.50;;
62202;SDS011;48199;49.138;7.414;2022-08-01T04:29:29;3.25;;;2.60;;
62202;SDS011;48199;49.138;7.414;2022-08-01T04:31:56;6.38;;;3.30;;
62202;SDS011;48199;49.138;7.414;2022-08-01T04:34:25;9.35;;;3.72;;
62202;SDS011;48199;49.138;7.414;2022-08-01T04:36:54;11.55;;;3.45;;
62202;SDS011;48199;49.138;7.414;2022-08-01T04:39:20;5.43;;;3.50;;
62202;SDS011;48199;49.138;7.414;2022-08-01T04:41:52;6.53;;;2.95;;
62202;SDS011;48199;49.138;7.414;2022-08-01T04:44:21;10.55;;;3.00;;
62202;SDS011;48199;49.138;7.414;2022-08-01T04:46:47;5.00;;;3.00;;
62202;SDS011;48199;49.138;7.414;2022-08-01T04:49:14;4.32;;;3.05;;
62202;SDS011;48199;49.138;7.414;2022-08-01T04:51:50;8.85;;;3.20;;
62202;SDS011;48199;49.138;7.414;2022-08-01T04:54:22;5.53;;;3.22;;
62202;SDS011;48199;49.138;7.414;2022-08-01T04:56:55;5.95;;;2.88;;
62202;SDS011;48199;49.138;7.414;2022-08-01T04:59:24;5.70;;;2.95;;
62202;SDS011;48199;49.138;7.414;2022-08-01T05:02:15;4.97;;;2.97;;
62202;SDS011;48199;49.138;7.414;2022-08-01T05:04:45;7.85;;;2.67;;
62202;SDS011;48199;49.138;7.414;2022-08-01T05:07:11;5.10;;;2.85;;
62202;SDS011;48199;49.138;7.414;2022-08-01T05:09:38;6.03;;;2.90;;
62202;SDS011;48199;49.138;7.414;2022-08-01T05:12:06;4.70;;;2.97;;
62202;SDS011;48199;49.138;7.414;2022-08-01T05:14:32;4.28;;;2.58;;
62202;SDS011;48199;49.138;7.414;2022-08-01T05:16:59;7.22;;;2.17;;
62202;SDS011;48199;49.138;7.414;2022-08-01T05:19:25;5.53;;;2.78;;
62202;SDS011;48199;49.138;7.414;2022-08-01T05:21:52;4.07;;;2.83;;
62202;SDS011;48199;49.138;7.414;2022-08-01T05:24:17;7.38;;;2.47;;
62202;SDS011;48199;49.138;7.414;2022-08-01T05:26:43;3.13;;;2.45;;
62202;SDS011;48199;49.138;7.414;2022-08-01T05:29:08;4.53;;;2.35;;
62202;SDS011;48199;49.138;7.414;2022-08-01T05:31:33;4.38;;;2.53;;
62202;SDS011;48199;49.138;7.414;2022-08-01T05:34:02;3.42;;;2.47;;
62202;SDS011;48199;49.138;7.414;2022-08-01T05:36:28;8.13;;;2.90;;
62202;SDS011;48199;49.138;7.414;2022-08-01T05:38:54;3.63;;;2.80;;
62202;SDS011;48199;49.138;7.414;2022-08-01T05:41:20;6.28;;;2.35;;
62202;SDS011;48199;49.138;7.414;2022-08-01T05:43:45;6.43;;;2.70;;
62202;SDS011;48199;49.138;7.414;2022-08-01T05:46:11;11.25;;;2.53;;
62202;SDS011;48199;49.138;7.414;2022-08-01T05:48:36;4.50;;;2.53;;
62202;SDS011;48199;49.138;7.414;2022-08-01T05:51:02;6.43;;;2.60;;
62202;SDS011;48199;49.138;7.414;2022-08-01T05:53:28;3.22;;;2.47;;
62202;SDS011;48199;49.138;7.414;2022-08-01T05:55:53;5.68;;;2.65;;
62202;SDS011;48199;49.138;7.414;2022-08-01T05:58:19;4.38;;;2.90;;
62202;SDS011;48199;49.138;7.414;2022-08-01T06:00:44;6.25;;;3.00;;
62202;SDS011;48199;49.138;7.414;2022-08-01T06:03:10;10.65;;;2.53;;
62202;SDS011;48199;49.138;7.414;2022-08-01T06:05:36;3.65;;;2.50;;
62202;SDS011;48199;49.138;7.414;2022-08-01T06:08:02;6.68;;;2.80;;
62202;SDS011;48199;49.138;7.414;2022-08-01T06:10:27;6.10;;;2.42;;
62202;SDS011;48199;49.138;7.414;2022-08-01T06:12:53;4.13;;;2.67;;
62202;SDS011;48199;49.138;7.414;2022-08-01T06:15:18;2.85;;;2.25;;
62202;SDS011;48199;49.138;7.414;2022-08-01T06:17:43;6.25;;;2.30;;
62202;SDS011;48199;49.138;7.414;2022-08-01T06:20:09;3.28;;;2.40;;
62202;SDS011;48199;49.138;7.414;2022-08-01T06:22:35;4.47;;;2.47;;
62202;SDS011;48199;49.138;7.414;2022-08-01T06:25:00;3.97;;;2.55;;
62202;SDS011;48199;49.138;7.414;2022-08-01T06:27:26;6.32;;;2.60;;
62202;SDS011;48199;49.138;7.414;2022-08-01T06:29:51;4.60;;;2.40;;
62202;SDS011;48199;49.138;7.414;2022-08-01T06:32:20;12.00;;;2.28;;
62202;SDS011;48199;49.138;7.414;2022-08-01T06:34:47;5.18;;;2.58;;
62202;SDS011;48199;49.138;7.414;2022-08-01T06:37:13;5.72;;;2.28;;
62202;SDS011;48199;49.138;7.414;2022-08-01T06:39:39;6.05;;;2.65;;
62202;SDS011;48199;49.138;7.414;2022-08-01T06:42:05;3.88;;;2.38;;
62202;SDS011;48199;49.138;7.414;2022-08-01T06:44:30;2.47;;;1.98;;
62202;SDS011;48199;49.138;7.414;2022-08-01T06:46:55;4.70;;;2.30;;
62202;SDS011;48199;49.138;7.414;2022-08-01T06:49:23;6.85;;;2.70;;
62202;SDS011;48199;49.138;7.414;2022-08-01T06:51:49;3.25;;;2.08;;
62202;SDS011;48199;49.138;7.414;2022-08-01T06:54:14;6.03;;;2.38;;
62202;SDS011;48199;49.138;7.414;2022-08-01T06:56:41;6.03;;;2.28;;
62202;SDS011;48199;49.138;7.414;2022-08-01T06:59:06;4.75;;;2.20;;
62202;SDS011;48199;49.138;7.414;2022-08-01T07:01:32;6.25;;;1.98;;
62202;SDS011;48199;49.138;7.414;2022-08-01T07:03:57;5.63;;;2.22;;
62202;SDS011;48199;49.138;7.414;2022-08-01T07:06:23;3.47;;;2.00;;
62202;SDS011;48199;49.138;7.414;2022-08-01T07:08:49;6.63;;;2.45;;
62202;SDS011;48199;49.138;7.414;2022-08-01T07:11:15;7.53;;;2.45;;
62202;SDS011;48199;49.138;7.414;2022-08-01T07:13:41;5.20;;;2.10;;
62202;SDS011;48199;49.138;7.414;2022-08-01T07:16:06;3.83;;;2.17;;
62202;SDS011;48199;49.138;7.414;2022-08-01T07:18:31;4.00;;;2.08;;
62202;SDS011;48199;49.138;7.414;2022-08-01T07:20:57;5.88;;;2.10;;
62202;SDS011;48199;49.138;7.414;2022-08-01T07:23:22;3.58;;;2.33;;
62202;SDS011;48199;49.138;7.414;2022-08-01T07:25:48;5.20;;;2.42;;
62202;SDS011;48199;49.138;7.414;2022-08-01T07:28:14;5.90;;;2.25;;
62202;SDS011;48199;49.138;7.414;2022-08-01T07:30:40;6.18;;;2.08;;
62202;SDS011;48199;49.138;7.414;2022-08-01T07:33:07;10.45;;;1.90;;
62202;SDS011;48199;49.138;7.414;2022-08-01T07:35:32;2.78;;;1.52;;
62202;SDS011;48199;49.138;7.414;2022-08-01T07:37:58;5.13;;;1.85;;
62202;SDS011;48199;49.138;7.414;2022-08-01T07:40:23;5.60;;;2.13;;
62202;SDS011;48199;49.138;7.414;2022-08-01T07:42:49;5.07;;;1.92;;
62202;SDS011;48199;49.138;7.414;2022-08-01T07:45:14;3.63;;;1.75;;
62202;SDS011;48199;49.138;7.414;2022-08-01T07:47:40;5.20;;;2.17;;
62202;SDS011;48199;49.138;7.414;2022-08-01T07:50:06;3.22;;;1.67;;
62202;SDS011;48199;49.138;7.414;2022-08-01T07:52:32;4.70;;;1.38;;
62202;SDS011;48199;49.138;7.414;2022-08-01T07:54:57;2.60;;;1.23;;
62202;SDS011;48199;49.138;7.414;2022-08-01T07:57:24;2.67;;;1.20;;
62202;SDS011;48199;49.138;7.414;2022-08-01T07:59:50;1.00;;;0.77;;
62202;SDS011;48199;49.138;7.414;2022-08-01T08:02:15;1.00;;;0.60;;
62202;SDS011;48199;49.138;7.414;2022-08-01T08:04:41;0.73;;;0.63;;
62202;SDS011;48199;49.138;7.414;2022-08-01T08:07:06;0.88;;;0.30;;
62202;SDS011;48199;49.138;7.414;2022-08-01T08:09:32;1.73;;;0.52;;
62202;SDS011;48199;49.138;7.414;2022-08-01T08:11:57;3.83;;;0.82;;
62202;SDS011;48199;49.138;7.414;2022-08-01T08:14:22;8.70;;;0.70;;
62202;SDS011;48199;49.138;7.414;2022-08-01T08:16:49;3.22;;;0.90;;
62202;SDS011;48199;49.138;7.414;2022-08-01T08:19:14;1.10;;;0.90;;
62202;SDS011;48199;49.138;7.414;2022-08-01T08:21:40;1.83;;;0.80;;
62202;SDS011;48199;49.138;7.414;2022-08-01T08:24:06;0.80;;;0.70;;
62202;SDS011;48199;49.138;7.414;2022-08-01T08:26:44;1.25;;;0.70;;
62202;SDS011;48199;49.138;7.414;2022-08-01T08:29:13;1.20;;;0.70;;
62202;SDS011;48199;49.138;7.414;2022-08-01T08:31:39;2.42;;;0.77;;
62202;SDS011;48199;49.138;7.414;2022-08-01T08:34:05;2.20;;;0.73;;
62202;SDS011;48199;49.138;7.414;2022-08-01T08:36:30;4.53;;;0.80;;
62202;SDS011;48199;49.138;7.414;2022-08-01T08:38:55;1.20;;;0.60;;
62202;SDS011;48199;49.138;7.414;2022-08-01T08:41:24;1.52;;;0.73;;
62202;SDS011;48199;49.138;7.414;2022-08-01T08:43:49;1.08;;;0.75;;
62202;SDS011;48199;49.138;7.414;2022-08-01T08:46:15;1.98;;;0.80;;
62202;SDS011;48199;49.138;7.414;2022-08-01T08:48:41;7.35;;;0.80;;
62202;SDS011;48199;49.138;7.414;2022-08-01T08:51:07;1.33;;;0.93;;
62202;SDS011;48199;49.138;7.414;2022-08-01T08:53:36;2.30;;;0.90;;
62202;SDS011;48199;49.138;7.414;2022-08-01T08:56:08;2.92;;;0.80;;
62202;SDS011;48199;49.138;7.414;2022-08-01T08:58:34;2.47;;;0.82;;
62202;SDS011;48199;49.138;7.414;2022-08-01T09:01:04;4.97;;;1.10;;
62202;SDS011;48199;49.138;7.414;2022-08-01T09:03:30;1.52;;;0.90;;
62202;SDS011;48199;49.138;7.414;2022-08-01T09:05:55;2.17;;;0.70;;
62202;SDS011;48199;49.138;7.414;2022-08-01T09:08:21;4.38;;;1.30;;
62202;SDS011;48199;49.138;7.414;2022-08-01T09:10:46;4.85;;;1.23;;
62202;SDS011;48199;49.138;7.414;2022-08-01T09:13:12;3.45;;;1.25;;
62202;SDS011;48199;49.138;7.414;2022-08-01T09:15:44;3.47;;;1.50;;
62202;SDS011;48199;49.138;7.414;2022-08-01T09:21:19;3.85;;;1.92;;
62202;SDS011;48199;49.138;7.414;2022-08-01T09:23:50;6.00;;;1.80;;
62202;SDS011;48199;49.138;7.414;2022-08-01T09:26:35;3.97;;;1.40;;
62202;SDS011;48199;49.138;7.414;2022-08-01T09:29:03;4.53;;;2.10;;
62202;SDS011;48199;49.138;7.414;2022-08-01T09:31:39;2.45;;;1.23;;
62202;SDS011;48199;49.138;7.414;2022-08-01T09:34:06;2.83;;;1.30;;
62202;SDS011;48199;49.138;7.414;2022-08-01T09:36:49;2.90;;;1.60;;
62202;SDS011;48199;49.138;7.414;2022-08-01T09:39:17;2.72;;;1.25;;
62202;SDS011;48199;49.138;7.414;2022-08-01T09:41:44;5.35;;;1.40;;
62202;SDS011;48199;49.138;7.414;2022-08-01T09:44:09;3.58;;;1.90;;
62202;SDS011;48199;49.138;7.414;2022-08-01T09:46:35;5.90;;;1.40;;
62202;SDS011;48199;49.138;7.414;2022-08-01T09:49:05;3.03;;;1.65;;
62202;SDS011;48199;49.138;7.414;2022-08-01T09:51:35;2.53;;;1.45;;
62202;SDS011;48199;49.138;7.414;2022-08-01T09:54:02;4.23;;;1.30;;
62202;SDS011;48199;49.138;7.414;2022-08-01T09:56:36;2.58;;;1.42;;
62202;SDS011;48199;49.138;7.414;2022-08-01T09:59:03;3.75;;;1.33;;
62202;SDS011;48199;49.138;7.414;2022-08-01T10:01:39;2.97;;;1.23;;
62202;SDS011;48199;49.138;7.414;2022-08-01T10:04:08;3.10;;;1.27;;
62202;SDS011;48199;49.138;7.414;2022-08-01T10:06:37;2.28;;;1.38;;
62202;SDS011;48199;49.138;7.414;2022-08-01T10:09:04;4.70;;;1.05;;
62202;SDS011;48199;49.138;7.414;2022-08-01T10:11:30;2.38;;;1.00;;
62202;SDS011;48199;49.138;7.414;2022-08-01T10:13:58;3.13;;;1.35;;
62202;SDS011;48199;49.138;7.414;2022-08-01T10:16:24;3.70;;;1.13;;
62202;SDS011;48199;49.138;7.414;2022-08-01T10:18:51;4.07;;;1.00;;
62202;SDS011;48199;49.138;7.414;2022-08-01T10:21:19;2.13;;;0.93;;
62202;SDS011;48199;49.138;7.414;2022-08-01T10:23:45;4.13;;;1.13;;
62202;SDS011;48199;49.138;7.414;2022-08-01T10:26:11;11.57;;;1.38;;
62202;SDS011;48199;49.138;7.414;2022-08-01T10:28:37;1.63;;;0.90;;
62202;SDS011;48199;49.138;7.414;2022-08-01T10:31:03;1.80;;;1.00;;
62202;SDS011;48199;49.138;7.414;2022-08-01T10:33:29;2.47;;;1.00;;
62202;SDS011;48199;49.138;7.414;2022-08-01T10:35:55;2.65;;;1.00;;
62202;SDS011;48199;49.138;7.414;2022-08-01T10:38:23;4.47;;;1.40;;
62202;SDS011;48199;49.138;7.414;2022-08-01T10:40:48;2.25;;;1.00;;
62202;SDS011;48199;49.138;7.414;2022-08-01T10:43:15;5.68;;;1.00;;
62202;SDS011;48199;49.138;7.414;2022-08-01T10:45:42;1.85;;;1.02;;
62202;SDS011;48199;49.138;7.414;2022-08-01T10:53:13;5.65;;;1.60;;
62202;SDS011;48199;49.138;7.414;2022-08-01T10:58:10;8.38;;;1.25;;
62202;SDS011;48199;49.138;7.414;2022-08-01T11:00:36;2.45;;;1.10;;
62202;SDS011;48199;49.138;7.414;2022-08-01T11:03:02;2.00;;;1.10;;
62202;SDS011;48199;49.138;7.414;2022-08-01T11:05:34;2.03;;;1.08;;
62202;SDS011;48199;49.138;7.414;2022-08-01T11:08:06;13.32;;;1.30;;
62202;SDS011;48199;49.138;7.414;2022-08-01T11:10:41;3.65;;;1.40;;
62202;SDS011;48199;49.138;7.414;2022-08-01T11:13:10;2.20;;;1.10;;
62202;SDS011;48199;49.138;7.414;2022-08-01T11:15:36;4.22;;;1.20;;
62202;SDS011;48199;49.138;7.414;2022-08-01T11:18:04;5.07;;;1.30;;
62202;SDS011;48199;49.138;7.414;2022-08-01T11:20:55;2.42;;;1.00;;
62202;SDS011;48199;49.138;7.414;2022-08-01T11:23:24;3.63;;;1.10;;
62202;SDS011;48199;49.138;7.414;2022-08-01T11:28:21;2.40;;;1.02;;
62202;SDS011;48199;49.138;7.414;2022-08-01T11:31:31;2.30;;;1.00;;
62202;SDS011;48199;49.138;7.414;2022-08-01T11:43:59;4.78;;;0.95;;
62202;SDS011;48199;49.138;7.414;2022-08-01T11:52:05;6.07;;;1.25;;
62202;SDS011;48199;49.138;7.414;2022-08-01T11:54:39;2.17;;;1.20;;
62202;SDS011;48199;49.138;7.414;2022-08-01T11:57:18;3.83;;;1.10;;
62202;SDS011;48199;49.138;7.414;2022-08-01T11:59:45;2.13;;;0.90;;
62202;SDS011;48199;49.138;7.414;2022-08-01T12:02:24;1.88;;;0.90;;
62202;SDS011;48199;49.138;7.414;2022-08-01T12:07:20;3.30;;;0.80;;
62202;SDS011;48199;49.138;7.414;2022-08-01T12:09:46;2.28;;;1.13;;
62202;SDS011;48199;49.138;7.414;2022-08-01T12:12:16;4.65;;;0.90;;
62202;SDS011;48199;49.138;7.414;2022-08-01T12:14:42;1.40;;;0.90;;
62202;SDS011;48199;49.138;7.414;2022-08-01T12:17:09;1.27;;;0.93;;
62202;SDS011;48199;49.138;7.414;2022-08-01T12:19:34;4.13;;;1.52;;
62202;SDS011;48199;49.138;7.414;2022-08-01T12:22:04;2.92;;;0.80;;
62202;SDS011;48199;49.138;7.414;2022-08-01T12:24:41;2.08;;;1.10;;
62202;SDS011;48199;49.138;7.414;2022-08-01T12:27:08;3.45;;;0.93;;
62202;SDS011;48199;49.138;7.414;2022-08-01T12:29:39;3.20;;;0.80;;
62202;SDS011;48199;49.138;7.414;2022-08-01T12:37:50;2.58;;;0.93;;
62202;SDS011;48199;49.138;7.414;2022-08-01T12:42:47;1.08;;;0.80;;
62202;SDS011;48199;49.138;7.414;2022-08-01T12:45:15;3.90;;;0.90;;
62202;SDS011;48199;49.138;7.414;2022-08-01T12:47:43;1.60;;;0.82;;
62202;SDS011;48199;49.138;7.414;2022-08-01T12:50:15;1.45;;;0.77;;
62202;SDS011;48199;49.138;7.414;2022-08-01T12:52:43;3.33;;;0.80;;
62202;SDS011;48199;49.138;7.414;2022-08-01T12:55:13;2.80;;;0.70;;
62202;SDS011;48199;49.138;7.414;2022-08-01T13:00:17;1.33;;;0.70;;
62202;SDS011;48199;49.138;7.414;2022-08-01T13:02:43;2.10;;;0.68;;
62202;SDS011;48199;49.138;7.414;2022-08-01T13:05:11;2.78;;;0.80;;
62202;SDS011;48199;49.138;7.414;2022-08-01T13:10:11;6.20;;;1.30;;
62202;SDS011;48199;49.138;7.414;2022-08-01T13:12:40;4.05;;;1.08;;
62202;SDS011;48199;49.138;7.414;2022-08-01T13:17:45;0.88;;;0.70;;
62202;SDS011;48199;49.138;7.414;2022-08-01T13:20:20;5.15;;;0.93;;
62202;SDS011;48199;49.138;7.414;2022-08-01T13:22:50;4.00;;;0.80;;
62202;SDS011;48199;49.138;7.414;2022-08-01T13:25:16;2.20;;;0.80;;
62202;SDS011;48199;49.138;7.414;2022-08-01T13:27:43;3.10;;;0.95;;
62202;SDS011;48199;49.138;7.414;2022-08-01T13:30:15;4.03;;;0.85;;
62202;SDS011;48199;49.138;7.414;2022-08-01T13:32:43;2.35;;;0.90;;
62202;SDS011;48199;49.138;7.414;2022-08-01T13:35:36;2.70;;;0.80;;
62202;SDS011;48199;49.138;7.414;2022-08-01T13:38:01;1.90;;;1.13;;
62202;SDS011;48199;49.138;7.414;2022-08-01T13:40:27;3.08;;;1.00;;
62202;SDS011;48199;49.138;7.414;2022-08-01T13:42:55;1.95;;;0.85;;
62202;SDS011;48199;49.138;7.414;2022-08-01T13:45:21;6.03;;;1.27;;
62202;SDS011;48199;49.138;7.414;2022-08-01T13:47:47;6.38;;;0.95;;
62202;SDS011;48199;49.138;7.414;2022-08-01T13:50:13;4.45;;;1.00;;
62202;SDS011;48199;49.138;7.414;2022-08-01T13:52:38;1.88;;;0.80;;
62202;SDS011;48199;49.138;7.414;2022-08-01T13:55:04;3.80;;;0.77;;
62202;SDS011;48199;49.138;7.414;2022-08-01T13:57:30;2.08;;;0.80;;
62202;SDS011;48199;49.138;7.414;2022-08-01T13:59:55;3.00;;;0.82;;
62202;SDS011;48199;49.138;7.414;2022-08-01T14:02:24;3.95;;;0.90;;
62202;SDS011;48199;49.138;7.414;2022-08-01T14:04:50;1.98;;;0.70;;
62202;SDS011;48199;49.138;7.414;2022-08-01T14:07:15;1.92;;;0.90;;
62202;SDS011;48199;49.138;7.414;2022-08-01T14:09:41;0.82;;;0.80;;
62202;SDS011;48199;49.138;7.414;2022-08-01T14:12:07;4.43;;;0.77;;
62202;SDS011;48199;49.138;7.414;2022-08-01T14:14:32;2.63;;;0.93;;
62202;SDS011;48199;49.138;7.414;2022-08-01T14:16:58;2.35;;;0.90;;
62202;SDS011;48199;49.138;7.414;2022-08-01T14:19:23;2.25;;;1.08;;
62202;SDS011;48199;49.138;7.414;2022-08-01T14:21:48;1.95;;;0.82;;
62202;SDS011;48199;49.138;7.414;2022-08-01T14:24:14;1.75;;;0.80;;
62202;SDS011;48199;49.138;7.414;2022-08-01T14:26:39;2.65;;;0.75;;
62202;SDS011;48199;49.138;7.414;2022-08-01T14:29:05;2.83;;;0.70;;
62202;SDS011;48199;49.138;7.414;2022-08-01T14:31:30;3.95;;;0.90;;
62202;SDS011;48199;49.138;7.414;2022-08-01T14:33:55;4.35;;;0.68;;
62202;SDS011;48199;49.138;7.414;2022-08-01T14:36:21;7.43;;;0.70;;
62202;SDS011;48199;49.138;7.414;2022-08-01T14:38:46;2.83;;;0.68;;
62202;SDS011;48199;49.138;7.414;2022-08-01T14:41:13;1.67;;;0.57;;
62202;SDS011;48199;49.138;7.414;2022-08-01T14:43:39;3.08;;;0.80;;
62202;SDS011;48199;49.138;7.414;2022-08-01T14:46:04;2.95;;;0.70;;
62202;SDS011;48199;49.138;7.414;2022-08-01T14:48:29;1.10;;;0.70;;
62202;SDS011;48199;49.138;7.414;2022-08-01T14:50:55;1.85;;;0.60;;
62202;SDS011;48199;49.138;7.414;2022-08-01T14:53:21;2.63;;;0.70;;
62202;SDS011;48199;49.138;7.414;2022-08-01T14:55:46;1.70;;;1.15;;
62202;SDS011;48199;49.138;7.414;2022-08-01T14:58:12;3.95;;;0.60;;
62202;SDS011;48199;49.138;7.414;2022-08-01T15:00:37;2.30;;;0.55;;
62202;SDS011;48199;49.138;7.414;2022-08-01T15:03:03;5.38;;;0.80;;
62202;SDS011;48199;49.138;7.414;2022-08-01T15:05:28;2.05;;;0.70;;
62202;SDS011;48199;49.138;7.414;2022-08-01T15:07:55;2.53;;;0.75;;
62202;SDS011;48199;49.138;7.414;2022-08-01T15:10:20;0.70;;;0.60;;
62202;SDS011;48199;49.138;7.414;2022-08-01T15:12:47;5.72;;;0.90;;
62202;SDS011;48199;49.138;7.414;2022-08-01T15:15:13;2.88;;;0.70;;
62202;SDS011;48199;49.138;7.414;2022-08-01T15:17:38;0.55;;;0.50;;
62202;SDS011;48199;49.138;7.414;2022-08-01T15:20:04;3.40;;;0.50;;
62202;SDS011;48199;49.138;7.414;2022-08-01T15:22:31;1.80;;;0.65;;
62202;SDS011;48199;49.138;7.414;2022-08-01T15:24:57;3.92;;;0.70;;
62202;SDS011;48199;49.138;7.414;2022-08-01T15:27:25;0.75;;;0.70;;
62202;SDS011;48199;49.138;7.414;2022-08-01T15:29:51;1.95;;;0.68;;
62202;SDS011;48199;49.138;7.414;2022-08-01T15:32:17;1.73;;;0.85;;
62202;SDS011;48199;49.138;7.414;2022-08-01T15:34:43;1.35;;;0.52;;
62202;SDS011;48199;49.138;7.414;2022-08-01T15:37:09;1.33;;;0.43;;
62202;SDS011;48199;49.138;7.414;2022-08-01T15:39:35;2.17;;;0.80;;
62202;SDS011;48199;49.138;7.414;2022-08-01T15:42:05;2.45;;;0.75;;
62202;SDS011;48199;49.138;7.414;2022-08-01T15:44:33;0.93;;;0.57;;
62202;SDS011;48199;49.138;7.414;2022-08-01T15:46:59;1.45;;;0.70;;
62202;SDS011;48199;49.138;7.414;2022-08-01T15:49:25;1.35;;;0.57;;